Time;durP1;ratioP1;P1;durP2;ratioP2;P2;SDS_P1;SDS_P2;PMS_P1;PMS_P2;Temp;Humidity;BMP_temperature;BMP_pressure;BME280_temperature;BME280_humidity;BME280_pressure;Samples;Min_cycle;Max_cycle;Signal;HPM_P1;HPM_P2
2021/12/14 00:00:34;;;;;;;13.63;6.03;;;;;;;2.14;84.59;95246.09;4991624;28;20712;-75
2021/12/14 00:03:00;;;;;;;6.57;4.60;;;;;;;2.25;83.77;95251.03;4991745;28;20192;-75
2021/12/14 00:05:29;;;;;;;10.43;5.53;;;;;;;2.32;82.97;95250.47;4995052;28;20215;-75
2021/12/14 00:07:57;;;;;;;7.87;4.60;;;;;;;2.23;83.18;95234.81;4995323;28;20264;-75
2021/12/14 00:13:57;;;;;;;9.47;5.20;;;;;;;2.45;82.76;95245.69;4995439;28;20208;-75
2021/12/14 00:16:01;;;;;;;9.23;5.77;;;;;;;2.44;82.27;95249.22;4986157;28;20221;-75
2021/12/14 00:18:27;;;;;;;6.33;4.23;;;;;;;2.46;82.35;95240.34;4995192;28;20191;-75
2021/12/14 00:21:00;;;;;;;6.97;4.10;;;;;;;2.48;82.01;95251.41;4995001;28;20185;-74
2021/12/14 00:26:14;;;;;;;19.40;7.10;;;;;;;2.47;82.26;95261.94;4994987;28;20184;-74
2021/12/14 00:28:40;;;;;;;21.20;7.73;;;;;;;2.49;82.21;95252.22;4995022;28;20177;-74
2021/12/14 00:31:13;;;;;;;11.57;5.87;;;;;;;2.50;82.49;95259.88;4994885;28;20240;-74
2021/12/14 00:33:40;;;;;;;10.07;5.27;;;;;;;2.48;81.42;95258.38;4994910;28;20185;-74
2021/12/14 00:36:08;;;;;;;10.63;5.57;;;;;;;2.43;82.04;95263.19;4994711;28;20212;-74
2021/12/14 00:38:36;;;;;;;10.13;5.67;;;;;;;2.40;82.08;95259.13;4994890;28;20212;-74
2021/12/14 00:41:10;;;;;;;11.57;5.83;;;;;;;2.44;82.28;95267.41;4994719;28;20275;-74
2021/12/14 00:43:39;;;;;;;5.70;4.13;;;;;;;2.50;82.16;95256.44;4994687;28;20181;-74
2021/12/14 00:46:05;;;;;;;8.60;4.43;;;;;;;2.54;82.14;95257.75;4994671;28;20219;-75
2021/12/14 00:48:31;;;;;;;9.37;5.23;;;;;;;2.56;82.00;95261.84;4994705;28;20619;-75
2021/12/14 00:51:00;;;;;;;6.80;4.80;;;;;;;2.57;82.39;95260.88;4993530;28;20184;-74
2021/12/14 00:53:27;;;;;;;8.03;5.07;;;;;;;2.58;82.02;95264.28;4994702;28;20239;-74
2021/12/14 00:55:56;;;;;;;9.47;4.97;;;;;;;2.50;82.14;95243.47;4994531;28;20201;-74
2021/12/14 00:58:22;;;;;;;7.00;4.50;;;;;;;2.49;81.58;95260.00;4994667;28;20184;-74
2021/12/14 01:01:05;;;;;;;6.87;4.63;;;;;;;2.49;81.39;95262.59;4994550;28;20185;-74
2021/12/14 01:03:33;;;;;;;7.47;4.60;;;;;;;2.50;81.48;95246.88;4994589;28;20185;-74
2021/12/14 01:06:00;;;;;;;7.27;4.80;;;;;;;2.53;82.15;95256.13;4993876;28;20177;-75
2021/12/14 01:08:34;;;;;;;7.67;4.53;;;;;;;2.54;81.63;95258.56;4994667;28;20177;-74
2021/12/14 01:11:18;;;;;;;7.07;4.47;;;;;;;2.61;81.35;95256.19;4994396;28;20642;-74
2021/12/14 01:13:55;;;;;;;7.00;4.70;;;;;;;2.57;81.53;95254.88;4994238;28;20184;-75
2021/12/14 01:16:47;;;;;;;8.07;5.23;;;;;;;2.65;81.77;95266.13;4993201;28;20356;-75
2021/12/14 01:19:20;;;;;;;8.13;3.97;;;;;;;2.58;81.45;95265.13;5001400;28;20209;-75
2021/12/14 01:25:07;;;;;;;5.20;3.40;;;;;;;2.54;81.23;95261.16;4992389;28;20192;-74
2021/12/14 01:27:39;;;;;;;5.87;3.80;;;;;;;2.52;81.52;95263.09;4994117;28;20181;-74
2021/12/14 01:30:13;;;;;;;5.73;4.47;;;;;;;2.52;81.64;95257.91;4992253;28;20706;-74
2021/12/14 01:32:42;;;;;;;6.37;3.87;;;;;;;2.55;81.94;95262.00;4994016;28;20185;-74
2021/12/14 01:35:13;;;;;;;9.23;5.27;;;;;;;2.58;82.13;95261.69;4993495;28;20185;-74
2021/12/14 01:37:46;;;;;;;5.80;4.03;;;;;;;2.52;82.18;95263.09;4993201;28;20201;-75
2021/12/14 01:40:29;;;;;;;5.63;4.00;;;;;;;2.52;82.21;95260.50;4993045;28;20184;-75
2021/12/14 01:42:56;;;;;;;5.20;3.63;;;;;;;2.43;81.71;95245.00;4993354;28;20263;-75
2021/12/14 01:45:25;;;;;;;7.53;3.80;;;;;;;2.47;82.35;95251.53;4993568;28;20223;-75
2021/12/14 01:47:57;;;;;;;6.70;4.20;;;;;;;2.50;82.18;95253.84;4993465;28;20193;-75
2021/12/14 01:50:33;;;;;;;5.97;4.60;;;;;;;2.53;82.37;95256.13;4993327;28;20287;-75
2021/12/14 01:53:02;;;;;;;8.37;4.73;;;;;;;2.52;82.41;95252.72;4993227;28;20641;-75
2021/12/14 01:55:32;;;;;;;8.47;4.33;;;;;;;2.60;81.80;95260.56;4993343;28;20188;-74
2021/12/14 01:58:00;;;;;;;6.83;4.30;;;;;;;2.64;82.08;95261.06;4993285;28;20181;-75
2021/12/14 02:00:33;;;;;;;6.50;4.00;;;;;;;2.33;82.23;95263.31;4993410;28;20188;-75
2021/12/14 02:03:01;;;;;;;6.80;4.10;;;;;;;2.32;83.09;95263.44;4993348;28;20227;-75
2021/12/14 02:05:34;;;;;;;8.77;5.27;;;;;;;2.33;83.34;95257.28;4993029;28;20376;-75
2021/12/14 02:08:04;;;;;;;7.87;4.00;;;;;;;2.17;82.58;95219.81;4993602;28;20924;-75
2021/12/14 02:10:37;;;;;;;4.80;3.63;;;;;;;2.33;82.68;95258.09;4993163;28;20181;-75
2021/12/14 02:13:04;;;;;;;7.87;5.20;;;;;;;2.28;82.91;95257.72;4993063;28;20193;-75
2021/12/14 02:15:43;;;;;;;5.90;5.10;;;;;;;2.30;83.06;95253.19;4993162;28;20189;-75
2021/12/14 02:18:22;;;;;;;9.57;5.13;;;;;;;2.23;83.51;95252.19;4993234;28;20189;-75
2021/12/14 02:20:59;;;;;;;6.20;4.23;;;;;;;2.36;83.13;95262.97;4992982;28;20650;-75
2021/12/14 02:23:26;;;;;;;5.43;4.20;;;;;;;2.32;83.12;95234.88;4993073;28;20192;-75
2021/12/14 02:25:57;;;;;;;7.03;4.27;;;;;;;2.34;83.22;95264.09;4992935;28;20185;-75
2021/12/14 02:28:23;;;;;;;6.93;4.90;;;;;;;2.27;83.12;95263.88;4991868;28;20679;-75
2021/12/14 02:30:54;;;;;;;7.00;4.70;;;;;;;2.29;83.54;95259.34;4992659;28;20229;-75
2021/12/14 02:33:24;;;;;;;6.50;4.37;;;;;;;2.33;83.77;95252.09;4992821;28;20185;-75
2021/12/14 02:35:51;;;;;;;7.90;4.90;;;;;;;2.42;83.62;95266.78;4975713;28;20269;-75
2021/12/14 02:38:18;;;;;;;9.80;5.50;;;;;;;2.35;83.58;95255.34;4992723;28;20184;-75
2021/12/14 02:41:11;;;;;;;7.37;4.80;;;;;;;2.49;83.06;95260.81;4992634;28;20180;-75
2021/12/14 02:43:50;;;;;;;7.63;5.33;;;;;;;2.49;82.84;95258.22;4992552;28;20219;-75
2021/12/14 02:46:23;;;;;;;10.40;6.37;;;;;;;2.44;83.45;95263.03;4992604;28;20256;-75
2021/12/14 02:48:53;;;;;;;8.17;5.07;;;;;;;2.39;83.86;95267.88;4992582;28;20176;-75
2021/12/14 02:51:18;;;;;;;8.47;5.17;;;;;;;2.35;84.14;95265.72;4992430;28;20717;-75
2021/12/14 02:53:48;;;;;;;8.33;4.53;;;;;;;2.28;84.09;95268.09;4992405;28;20189;-75
2021/12/14 02:56:17;;;;;;;9.97;4.87;;;;;;;2.25;84.52;95265.81;4992242;28;20259;-75
2021/12/14 02:58:44;;;;;;;7.90;5.07;;;;;;;2.04;84.97;95273.09;4992511;28;20177;-74
2021/12/14 03:01:11;;;;;;;7.90;5.57;;;;;;;1.93;86.00;95273.31;4991093;28;20631;-74
2021/12/14 03:03:36;;;;;;;9.17;5.93;;;;;;;1.89;86.41;95278.81;4991864;28;20219;-74
2021/12/14 03:06:05;;;;;;;10.23;5.90;;;;;;;1.93;86.90;95273.31;4992175;28;20238;-74
2021/12/14 03:08:37;;;;;;;9.83;6.67;;;;;;;1.89;86.51;95271.03;4992276;28;20181;-74
2021/12/14 03:11:11;;;;;;;11.97;6.80;;;;;;;1.97;86.14;95278.06;4992121;28;20185;-74
2021/12/14 03:13:47;;;;;;;9.57;5.17;;;;;;;1.94;86.36;95274.94;4991010;28;20215;-74
2021/12/14 03:16:24;;;;;;;8.90;5.40;;;;;;;2.01;86.50;95271.59;4992043;28;20193;-74
2021/12/14 03:18:52;;;;;;;13.50;8.37;;;;;;;2.04;86.32;95278.28;4991978;28;20184;-74
2021/12/14 03:21:22;;;;;;;11.43;7.37;;;;;;;1.87;86.36;95265.16;4991868;28;20260;-74
2021/12/14 03:23:54;;;;;;;9.50;5.67;;;;;;;2.01;85.90;95281.16;4991851;28;20189;-74
2021/12/14 03:26:24;;;;;;;11.57;6.60;;;;;;;1.94;85.70;95267.16;4991829;28;20673;-74
2021/12/14 03:28:53;;;;;;;6.37;5.30;;;;;;;2.02;85.62;95282.81;4991568;28;20561;-74
2021/12/14 03:31:29;;;;;;;9.37;5.53;;;;;;;1.91;86.35;95273.44;4991578;28;20216;-74
2021/12/14 03:34:09;;;;;;;9.10;5.43;;;;;;;1.92;86.15;95275.09;4983080;28;20255;-74
2021/12/14 03:37:04;;;;;;;7.60;5.13;;;;;;;1.94;86.37;95273.16;4991761;28;20283;-75
2021/12/14 03:39:35;;;;;;;10.53;5.57;;;;;;;1.93;86.17;95275.91;4990189;28;20188;-75
2021/12/14 03:42:07;;;;;;;11.17;6.37;;;;;;;1.94;86.25;95275.75;4991924;28;20287;-75
2021/12/14 03:44:37;;;;;;;8.63;6.50;;;;;;;1.95;85.97;95277.41;4991645;28;20177;-75
2021/12/14 03:47:07;;;;;;;10.90;6.20;;;;;;;1.90;85.97;95251.88;4990622;28;20181;-75
2021/12/14 03:49:36;;;;;;;7.53;5.03;;;;;;;2.09;86.45;95273.47;4991557;28;20259;-75
2021/12/14 03:52:07;;;;;;;7.30;5.37;;;;;;;1.84;86.56;95228.28;4989338;28;20187;-75
2021/12/14 03:54:32;;;;;;;11.43;6.00;;;;;;;2.20;85.99;95279.25;4991634;28;20192;-75
2021/12/14 03:56:58;;;;;;;8.97;5.90;;;;;;;2.19;85.83;95277.63;4991431;28;20197;-75
2021/12/14 03:59:27;;;;;;;10.77;5.77;;;;;;;2.02;86.00;95264.63;4991747;28;20177;-75
2021/12/14 04:01:53;;;;;;;13.83;6.27;;;;;;;2.14;86.51;95284.22;4991465;28;20692;-75
2021/12/14 04:04:26;;;;;;;9.80;6.40;;;;;;;2.14;86.38;95282.44;4991501;28;20263;-75
2021/12/14 04:06:55;;;;;;;11.33;7.70;;;;;;;2.02;86.45;95280.22;4991426;28;20177;-75
2021/12/14 04:09:24;;;;;;;10.00;6.43;;;;;;;2.11;86.65;95290.53;4991704;28;20185;-76
2021/12/14 04:11:50;;;;;;;10.17;5.77;;;;;;;2.07;86.40;95293.59;4991669;28;20676;-75
2021/12/14 04:14:16;;;;;;;12.33;7.57;;;;;;;2.07;86.61;95289.22;4991515;28;20264;-75
2021/12/14 04:16:46;;;;;;;8.47;5.93;;;;;;;2.04;86.71;95288.66;4991559;28;20193;-75
2021/12/14 04:19:15;;;;;;;17.33;7.57;;;;;;;2.12;86.58;95289.56;4985365;28;20578;-75
2021/12/14 04:21:44;;;;;;;15.73;8.93;;;;;;;2.16;86.76;95297.88;4989009;28;20285;-75
2021/12/14 04:24:11;;;;;;;9.27;5.63;;;;;;;2.01;87.44;95296.75;4991573;28;20181;-75
2021/12/14 04:26:44;;;;;;;14.37;8.10;;;;;;;1.91;88.10;95307.19;4991618;28;20173;-75
2021/12/14 04:29:12;;;;;;;11.03;6.73;;;;;;;1.53;88.52;95287.50;4991168;28;20191;-74
2021/12/14 04:31:39;;;;;;;10.83;6.30;;;;;;;1.39;89.68;95287.97;4990861;28;20255;-74
2021/12/14 04:34:05;;;;;;;15.43;9.63;;;;;;;1.56;90.21;95307.94;4991312;28;20187;-75
2021/12/14 04:36:31;;;;;;;22.57;13.27;;;;;;;1.59;90.72;95299.06;4990781;28;20209;-73
2021/12/14 04:39:17;;;;;;;38.23;18.73;;;;;;;1.73;90.23;95306.38;4991074;28;20212;-74
2021/12/14 04:53:06;;;;;;;18.80;9.83;;;;;;;1.82;89.53;95289.91;4994528;28;20200;-74
2021/12/14 04:55:32;;;;;;;21.80;11.30;;;;;;;1.90;89.03;95308.19;4994440;28;20192;-74
2021/12/14 04:57:57;;;;;;;21.10;11.60;;;;;;;1.84;88.39;95306.97;4991630;28;20205;-74
2021/12/14 05:00:32;;;;;;;26.40;13.83;;;;;;;1.93;88.94;95310.47;4994078;28;20184;-74
2021/12/14 05:03:01;;;;;;;23.30;13.00;;;;;;;1.92;88.40;95308.00;4993989;28;20177;-74
2021/12/14 05:05:44;;;;;;;23.13;12.87;;;;;;;2.03;88.88;95313.00;4994594;28;20223;-76
2021/12/14 05:11:03;;;;;;;19.37;9.37;;;;;;;1.75;88.89;95304.44;4991666;28;20192;-74
2021/12/14 05:13:42;;;;;;;17.87;9.73;;;;;;;1.84;88.23;95313.94;4991446;28;20188;-74
2021/12/14 05:16:08;;;;;;;19.30;11.33;;;;;;;1.93;88.77;95314.84;4993895;28;20231;-74
2021/12/14 05:18:37;;;;;;;23.60;11.93;;;;;;;1.99;88.67;95319.47;4993962;28;20221;-74
2021/12/14 05:21:02;;;;;;;20.00;10.67;;;;;;;1.97;88.45;95321.38;4994007;28;20626;-74
2021/12/14 05:23:33;;;;;;;26.83;13.60;;;;;;;1.82;87.70;95321.84;4993304;28;20181;-75
2021/12/14 05:26:06;;;;;;;23.57;12.60;;;;;;;1.82;87.69;95321.84;4994004;28;20177;-75
2021/12/14 05:28:33;;;;;;;21.87;11.13;;;;;;;1.83;87.80;95323.50;4994122;28;20189;-75
2021/12/14 05:30:59;;;;;;;21.50;12.17;;;;;;;1.86;88.10;95318.03;4991810;28;20221;-75
2021/12/14 05:33:28;;;;;;;17.27;9.30;;;;;;;1.96;87.70;95319.75;4993777;28;20224;-75
2021/12/14 05:36:01;;;;;;;17.97;9.57;;;;;;;1.91;88.07;95307.19;4993359;28;20185;-75
2021/12/14 05:38:44;;;;;;;19.83;10.63;;;;;;;2.04;87.12;95314.63;4984715;28;20644;-74
2021/12/14 05:43:05;;;;;;;14.03;8.87;;;;;;;2.15;87.40;95317.03;4977157;28;20248;-75
2021/12/14 05:43:58;;;;;;;17.83;9.27;;;;;;;2.14;86.71;95321.41;4974379;28;20196;-75
2021/12/14 05:46:26;;;;;;;16.63;9.60;;;;;;;2.10;86.83;95324.41;4974509;28;20158;-74
2021/12/14 05:49:01;;;;;;;16.83;9.63;;;;;;;2.09;86.63;95322.78;4973797;28;20182;-75
2021/12/14 05:51:30;;;;;;;16.50;9.90;;;;;;;2.22;86.43;95323.25;4988731;28;20232;-75
2021/12/14 05:53:57;;;;;;;17.77;8.53;;;;;;;2.17;86.22;95326.28;4973333;28;20177;-74
2021/12/14 05:56:29;;;;;;;16.80;8.80;;;;;;;2.24;86.04;95331.72;4973504;28;20201;-74
2021/12/14 05:58:55;;;;;;;20.47;10.83;;;;;;;2.33;85.36;95341.22;4974021;28;20235;-74
2021/12/14 06:01:27;;;;;;;22.67;9.87;;;;;;;2.32;85.28;95329.19;4973549;28;20257;-74
2021/12/14 06:04:08;;;;;;;21.57;10.80;;;;;;;2.39;84.43;95351.00;4973988;28;20178;-74
2021/12/14 06:06:41;;;;;;;16.63;9.70;;;;;;;2.43;84.73;95356.69;4988936;28;20201;-74
2021/12/14 06:09:12;;;;;;;18.33;8.70;;;;;;;2.25;84.85;95351.50;4988710;28;20617;-74
2021/12/14 06:11:38;;;;;;;19.10;10.30;;;;;;;2.11;85.97;95347.66;4973918;28;20677;-74
2021/12/14 06:14:11;;;;;;;19.03;9.27;;;;;;;2.21;85.89;95357.97;4973927;28;20185;-74
2021/12/14 06:16:38;;;;;;;21.63;10.87;;;;;;;2.30;85.69;95354.50;4973684;28;20587;-74
2021/12/14 06:19:15;;;;;;;22.57;11.40;;;;;;;2.23;85.48;95356.06;4973724;28;20265;-74
2021/12/14 06:21:42;;;;;;;31.03;13.93;;;;;;;2.14;85.54;95331.78;4973428;28;20197;-74
2021/12/14 06:24:10;;;;;;;29.10;14.17;;;;;;;2.33;85.24;95355.97;4973523;28;20185;-74
2021/12/14 06:26:39;;;;;;;27.70;14.37;;;;;;;2.24;85.15;95352.50;4973466;28;20354;-74
2021/12/14 06:29:17;;;;;;;17.97;11.10;;;;;;;2.28;85.54;95357.22;4973573;28;20705;-74
2021/12/14 06:31:43;;;;;;;19.80;9.87;;;;;;;2.38;84.89;95362.34;4973390;28;20176;-74
2021/12/14 06:34:11;;;;;;;24.63;10.63;;;;;;;2.37;84.89;95358.13;4973145;28;20222;-74
2021/12/14 06:36:53;;;;;;;32.87;16.47;;;;;;;2.44;84.74;95363.53;4973058;28;20201;-74
2021/12/14 06:39:19;;;;;;;34.03;15.73;;;;;;;2.30;84.85;95364.06;4973243;28;20209;-74
2021/12/14 06:41:45;;;;;;;27.73;14.30;;;;;;;2.43;85.74;95370.50;4973269;28;20178;-74
2021/12/14 06:44:10;;;;;;;22.37;11.33;;;;;;;2.51;84.55;95373.19;4973200;28;20217;-74
2021/12/14 06:46:40;;;;;;;25.27;12.87;;;;;;;2.41;84.21;95369.88;4973257;28;20232;-74
2021/12/14 06:49:13;;;;;;;22.37;13.30;;;;;;;2.34;84.22;95374.00;4973125;28;20184;-74
2021/12/14 06:51:43;;;;;;;18.83;11.60;;;;;;;2.32;84.50;95375.13;4973115;28;20177;-76
2021/12/14 06:54:15;;;;;;;26.63;13.63;;;;;;;2.34;84.29;95381.78;4972884;28;20546;-76
2021/12/14 06:56:41;;;;;;;25.37;13.43;;;;;;;2.26;84.69;95371.31;4973031;28;20682;-76
2021/12/14 06:59:20;;;;;;;17.33;10.10;;;;;;;2.37;85.41;95388.47;4972936;28;20184;-73
2021/12/14 07:01:54;;;;;;;20.00;12.63;;;;;;;2.38;84.84;95390.13;4972613;28;20208;-74
2021/12/14 07:04:30;;;;;;;38.10;18.00;;;;;;;2.41;85.45;95395.03;4972626;28;20181;-74
2021/12/14 07:07:03;;;;;;;29.80;18.20;;;;;;;2.43;85.00;95391.28;4972646;28;20268;-74
2021/12/14 07:09:40;;;;;;;45.70;26.83;;;;;;;2.37;85.36;95397.09;4972675;28;20265;-76
2021/12/14 07:12:33;;;;;;;44.53;28.00;;;;;;;2.28;85.59;95397.97;4987382;28;20200;-75
2021/12/14 07:15:15;;;;;;;34.47;19.80;;;;;;;2.13;86.38;95402.84;4972042;28;20240;-75
2021/12/14 07:18:05;;;;;;;27.27;16.13;;;;;;;2.12;87.24;95406.41;4972607;28;20588;-75
2021/12/14 07:20:34;;;;;;;34.73;18.63;;;;;;;2.16;87.74;95397.34;4977525;28;20182;-75
2021/12/14 07:23:15;;;;;;;45.50;26.53;;;;;;;2.21;87.20;95402.13;4972613;28;20173;-75
2021/12/14 07:25:43;;;;;;;45.33;27.60;;;;;;;2.31;87.66;95405.47;4972404;28;20183;-75
2021/12/14 07:28:20;;;;;;;43.27;23.10;;;;;;;2.32;87.67;95412.31;4972265;28;20232;-75
2021/12/14 07:30:55;;;;;;;51.70;27.57;;;;;;;2.32;87.49;95411.50;4986593;28;20182;-75
2021/12/14 07:33:23;;;;;;;43.90;26.77;;;;;;;2.30;87.77;95403.84;4970231;28;20292;-75
2021/12/14 07:36:06;;;;;;;37.73;24.23;;;;;;;2.37;87.64;95407.47;4987348;28;20554;-75
2021/12/14 07:38:38;;;;;;;46.03;22.83;;;;;;;2.37;87.98;95419.66;4991466;28;20177;-74
2021/12/14 07:41:10;;;;;;;47.37;21.77;;;;;;;2.24;87.55;95420.00;4991565;28;20188;-75
2021/12/14 07:43:43;;;;;;;52.07;22.63;;;;;;;2.26;88.29;95418.88;4990222;28;20653;-74
2021/12/14 07:46:21;;;;;;;34.47;19.30;;;;;;;2.37;88.47;95412.66;4991535;28;20180;-75
2021/12/14 07:49:00;;;;;;;39.73;20.17;;;;;;;2.45;88.61;95409.34;4990008;28;20183;-75
2021/12/14 07:51:28;;;;;;;33.33;17.00;;;;;;;2.55;88.57;95407.50;4990934;28;20177;-75
2021/12/14 07:54:01;;;;;;;29.87;16.00;;;;;;;2.67;87.88;95414.13;4991566;28;20571;-75
2021/12/14 07:56:34;;;;;;;38.30;20.10;;;;;;;2.71;87.09;95420.63;4991344;28;20284;-75
2021/12/14 07:59:00;;;;;;;30.37;15.77;;;;;;;2.69;87.35;95412.16;4991508;28;20264;-75
2021/12/14 08:01:27;;;;;;;26.80;12.70;;;;;;;2.79;87.53;95407.72;4991553;28;20677;-75
2021/12/14 08:04:03;;;;;;;19.37;10.80;;;;;;;2.90;87.09;95406.66;4989969;28;20185;-75
2021/12/14 08:06:46;;;;;;;20.27;11.43;;;;;;;3.08;86.87;95425.66;4991439;28;20227;-76
2021/12/14 08:09:19;;;;;;;23.63;11.27;;;;;;;3.15;86.67;95433.69;4991230;28;20180;-76
2021/12/14 08:11:48;;;;;;;19.77;11.20;;;;;;;3.29;86.35;95433.13;4987470;28;20542;-76
2021/12/14 08:14:26;;;;;;;21.33;12.37;;;;;;;3.35;85.64;95441.16;4990926;28;20208;-75
2021/12/14 08:17:06;;;;;;;16.43;11.23;;;;;;;3.32;85.71;95427.63;4990824;28;20200;-76
2021/12/14 08:19:37;;;;;;;17.07;10.87;;;;;;;3.51;85.43;95435.25;4985727;28;20169;-76
2021/12/14 08:22:14;;;;;;;20.10;10.87;;;;;;;3.41;84.81;95427.53;4990733;28;20191;-75
2021/12/14 08:24:48;;;;;;;17.77;10.93;;;;;;;3.37;84.92;95443.59;4989873;28;20171;-75
2021/12/14 08:27:19;;;;;;;15.87;10.20;;;;;;;3.40;84.99;95444.09;4992022;28;20177;-75
2021/12/14 08:29:50;;;;;;;21.93;10.93;;;;;;;3.40;85.08;95451.91;4994207;28;20199;-76
2021/12/14 08:32:23;;;;;;;20.67;11.03;;;;;;;3.48;85.42;95452.94;4994391;28;20239;-76
2021/12/14 08:34:52;;;;;;;22.37;12.07;;;;;;;3.36;84.68;95428.97;4994079;28;20631;-75
2021/12/14 08:37:35;;;;;;;19.73;11.17;;;;;;;3.42;84.96;95444.78;4994669;28;20741;-75
2021/12/14 08:40:11;;;;;;;18.17;10.53;;;;;;;3.42;84.80;95447.38;4992715;28;20193;-74
2021/12/14 08:42:51;;;;;;;23.27;12.67;;;;;;;3.37;84.92;95426.19;4994915;28;20165;-77
2021/12/14 08:45:27;;;;;;;23.07;11.50;;;;;;;3.45;84.68;95448.06;4994731;28;20720;-75
2021/12/14 08:47:54;;;;;;;18.60;9.67;;;;;;;3.46;84.90;95434.06;4994946;28;20168;-75
2021/12/14 08:50:20;;;;;;;17.00;9.83;;;;;;;3.46;84.92;95432.25;4993113;28;20284;-74
2021/12/14 08:52:46;;;;;;;17.37;9.40;;;;;;;3.45;85.28;95428.06;4994389;28;20256;-76
2021/12/14 08:55:17;;;;;;;20.50;11.17;;;;;;;3.54;84.99;95436.72;4991631;28;20234;-77
2021/12/14 08:57:44;;;;;;;23.17;13.10;;;;;;;3.59;85.08;95435.28;4994269;28;20693;-76
2021/12/14 09:00:15;;;;;;;21.13;11.90;;;;;;;3.45;85.17;95419.44;4993527;28;20559;-75
2021/12/14 09:02:41;;;;;;;24.50;13.60;;;;;;;3.51;85.47;95430.03;4994641;28;20173;-76
2021/12/14 09:05:20;;;;;;;29.43;14.10;;;;;;;3.52;84.75;95425.66;4993226;28;20215;-75
2021/12/14 09:07:55;;;;;;;25.27;12.27;;;;;;;3.41;85.17;95419.72;4994852;28;20177;-75
2021/12/14 09:10:25;;;;;;;17.90;9.70;;;;;;;3.38;85.43;95417.41;4994206;28;20192;-75
2021/12/14 09:13:06;;;;;;;20.83;11.17;;;;;;;3.41;85.56;95406.72;4993015;28;20673;-75
2021/12/14 09:15:42;;;;;;;23.73;12.53;;;;;;;3.58;85.27;95415.44;4993802;28;20265;-75
2021/12/14 09:18:15;;;;;;;26.47;14.07;;;;;;;3.72;85.17;95414.84;4993807;28;20287;-75
2021/12/14 09:20:55;;;;;;;23.83;13.53;;;;;;;3.76;85.20;95416.19;4993632;28;20181;-76
2021/12/14 09:23:36;;;;;;;27.13;15.23;;;;;;;3.71;84.95;95415.03;4993619;28;20180;-76
2021/12/14 09:26:17;;;;;;;23.60;13.70;;;;;;;3.78;84.76;95411.66;4993533;28;20172;-76
2021/12/14 09:28:42;;;;;;;25.43;15.13;;;;;;;3.71;85.11;95389.81;4993662;28;20187;-76
2021/12/14 09:31:13;;;;;;;23.97;12.70;;;;;;;3.69;84.68;95411.75;4993455;28;20181;-76
2021/12/14 09:33:42;;;;;;;28.27;14.23;;;;;;;3.75;84.51;95401.53;4993267;28;20240;-76
2021/12/14 09:36:15;;;;;;;26.33;15.40;;;;;;;3.81;84.84;95405.28;4992576;28;20177;-76
2021/12/14 09:38:54;;;;;;;39.57;21.40;;;;;;;3.84;84.68;95388.56;4993284;28;20254;-76
2021/12/14 09:41:25;;;;;;;55.30;24.07;;;;;;;3.96;84.23;95395.94;4993280;28;20284;-76
2021/12/14 09:43:53;;;;;;;41.20;22.83;;;;;;;4.03;84.98;95396.94;4993141;28;20549;-76
2021/12/14 09:46:19;;;;;;;33.60;19.93;;;;;;;4.02;84.95;95374.47;4993135;28;20166;-76
2021/12/14 09:48:57;;;;;;;32.10;18.43;;;;;;;4.22;84.10;95395.88;4993095;28;20244;-76
2021/12/14 09:51:31;;;;;;;31.07;17.40;;;;;;;4.22;83.67;95385.44;4993434;28;20211;-76
2021/12/14 09:54:02;;;;;;;23.33;13.53;;;;;;;4.00;82.98;95389.44;4993072;28;20169;-76
2021/12/14 09:56:36;;;;;;;22.73;13.13;;;;;;;3.84;83.48;95354.69;4993083;28;20347;-76
2021/12/14 09:59:04;;;;;;;22.23;13.47;;;;;;;4.00;83.08;95386.00;4993172;28;20183;-76
2021/12/14 10:01:40;;;;;;;21.33;12.83;;;;;;;4.07;83.30;95384.41;4992977;28;20165;-75
2021/12/14 10:04:14;;;;;;;27.10;13.57;;;;;;;4.07;83.60;95376.59;4992978;28;20172;-77
2021/12/14 10:06:40;;;;;;;28.43;13.67;;;;;;;4.02;83.60;95361.44;4991330;28;20639;-77
2021/12/14 10:09:14;;;;;;;23.13;13.70;;;;;;;4.18;84.00;95387.53;4992876;28;20204;-78
2021/12/14 10:12:00;;;;;;;24.33;13.23;;;;;;;4.21;83.64;95380.38;4992629;28;20542;-75
2021/12/14 10:14:38;;;;;;;23.87;14.07;;;;;;;4.22;83.55;95390.66;4992732;28;20169;-76
2021/12/14 10:17:09;;;;;;;24.60;14.57;;;;;;;4.32;83.50;95382.72;4992535;28;20203;-76
2021/12/14 10:19:35;;;;;;;32.57;15.23;;;;;;;4.26;83.58;95375.50;4992431;28;20169;-76
2021/12/14 10:22:06;;;;;;;26.97;13.63;;;;;;;4.39;82.99;95381.09;4992586;28;20173;-77
2021/12/14 10:24:34;;;;;;;25.27;14.83;;;;;;;4.47;82.90;95379.31;4992491;28;20689;-76
2021/12/14 10:27:06;;;;;;;28.30;13.50;;;;;;;4.34;82.41;95381.56;4992444;28;20248;-76
2021/12/14 10:29:33;;;;;;;25.10;15.60;;;;;;;4.21;82.96;95376.00;4992262;28;20227;-76
2021/12/14 10:32:07;;;;;;;24.13;14.30;;;;;;;4.16;83.71;95371.25;4992765;28;20224;-76
2021/12/14 10:34:46;;;;;;;21.53;12.23;;;;;;;4.26;83.18;95368.50;4992064;28;20731;-76
2021/12/14 10:37:25;;;;;;;22.37;14.00;;;;;;;4.34;82.40;95372.91;4991028;28;20287;-76
2021/12/14 10:42:54;;;;;;;30.40;16.37;;;;;;;4.36;82.35;95361.38;4992288;28;20246;-76
2021/12/14 10:45:24;;;;;;;27.10;14.63;;;;;;;4.42;82.01;95376.34;4992222;28;20255;-76
2021/12/14 10:47:50;;;;;;;28.80;17.00;;;;;;;4.47;82.80;95368.06;4991911;28;20170;-76
2021/12/14 10:50:23;;;;;;;38.70;19.50;;;;;;;4.53;82.92;95360.41;4991967;28;20180;-76
2021/12/14 10:52:50;;;;;;;44.03;20.33;;;;;;;4.51;81.88;95361.53;4991957;28;20247;-76
2021/12/14 10:55:45;;;;;;;37.33;20.23;;;;;;;4.46;82.30;95363.81;4991872;28;20173;-76
2021/12/14 10:58:14;;;;;;;51.27;26.57;;;;;;;4.45;83.14;95370.00;4991613;28;20299;-75
2021/12/14 11:00:43;;;;;;;38.93;19.37;;;;;;;4.48;82.80;95364.50;4991700;28;20173;-76
2021/12/14 11:03:21;;;;;;;28.63;14.23;;;;;;;4.35;82.43;95338.06;4992319;28;20184;-75
2021/12/14 11:05:53;;;;;;;24.33;14.60;;;;;;;4.40;82.20;95367.91;4991635;28;20179;-76
2021/12/14 11:09:39;;;;;;;28.53;14.63;;;;;;;4.38;82.97;95367.25;4991579;28;20565;-76
2021/12/14 11:11:20;;;;;;;28.40;16.27;;;;;;;4.25;82.85;95332.19;4986433;28;20694;-75
2021/12/14 11:13:55;;;;;;;28.40;13.90;;;;;;;4.32;82.85;95343.63;4991641;28;20169;-76
2021/12/14 11:19:50;;;;;;;29.73;15.33;;;;;;;4.32;83.01;95349.66;4991732;28;20184;-75
2021/12/14 11:22:23;;;;;;;28.90;16.37;;;;;;;4.27;83.34;95332.84;4991364;28;20580;-75
2021/12/14 11:24:54;;;;;;;34.77;17.77;;;;;;;4.38;83.12;95346.38;4991531;28;20169;-75
2021/12/14 11:27:41;;;;;;;25.90;12.60;;;;;;;4.40;82.71;95351.44;4991436;28;20256;-75
2021/12/14 11:30:24;;;;;;;26.93;15.00;;;;;;;4.32;82.49;95351.44;4991627;28;20537;-75
2021/12/14 11:33:07;;;;;;;30.50;14.57;;;;;;;4.28;82.84;95343.09;4990940;28;20228;-75
2021/12/14 11:35:40;;;;;;;28.10;14.97;;;;;;;4.17;82.80;95330.38;4991252;28;20180;-75
2021/12/14 11:38:42;;;;;;;31.07;15.37;;;;;;;4.28;82.32;95343.09;4991071;28;20205;-75
2021/12/14 11:41:35;;;;;;;28.87;14.67;;;;;;;4.15;83.04;95340.94;4976962;28;20628;-75
2021/12/14 11:44:28;;;;;;;23.57;13.10;;;;;;;4.21;83.09;95341.31;4989854;28;20304;-75
2021/12/14 11:50:21;;;;;;;24.30;13.17;;;;;;;4.13;82.86;95344.72;4986918;28;20224;-74
2021/12/14 11:53:09;;;;;;;26.63;15.73;;;;;;;4.06;83.22;95335.91;4983874;28;20173;-74
2021/12/14 11:55:54;;;;;;;29.73;15.17;;;;;;;4.02;83.37;95340.59;4990793;28;20735;-74
2021/12/14 11:58:54;;;;;;;46.77;21.03;;;;;;;3.94;83.35;95340.59;4984987;28;20200;-74
2021/12/14 12:01:32;;;;;;;42.90;19.63;;;;;;;3.78;83.47;95335.31;4989398;28;20207;-75
2021/12/14 12:04:10;;;;;;;34.87;18.27;;;;;;;3.67;84.39;95333.00;4989802;28;20180;-74
2021/12/14 12:09:46;;;;;;;42.60;23.87;;;;;;;3.76;84.74;95334.66;4988354;28;20185;-76
2021/12/14 12:12:24;;;;;;;44.50;24.27;;;;;;;3.71;84.69;95335.16;4989145;28;20181;-75
2021/12/14 12:15:03;;;;;;;41.43;20.33;;;;;;;3.75;85.16;95333.84;4991001;28;20194;-75
2021/12/14 12:17:44;;;;;;;53.17;24.33;;;;;;;3.82;84.82;95328.00;4988426;28;20208;-75
2021/12/14 12:20:19;;;;;;;55.83;27.50;;;;;;;3.85;85.14;95325.91;4991838;28;20656;-75
2021/12/14 12:23:06;;;;;;;48.80;25.57;;;;;;;3.90;84.76;95331.44;4990894;28;20319;-75
2021/12/14 12:25:34;;;;;;;29.40;16.23;;;;;;;3.71;84.51;95296.09;4988463;28;20181;-75
2021/12/14 12:28:07;;;;;;;30.63;15.73;;;;;;;3.98;84.31;95326.25;4991018;28;20173;-74
2021/12/14 12:30:41;;;;;;;28.97;15.50;;;;;;;3.88;83.81;95314.38;4989859;28;20650;-77
2021/12/14 12:33:18;;;;;;;36.80;18.43;;;;;;;3.93;83.96;95328.53;4990491;28;20632;-76